Time;durP1;ratioP1;P1;durP2;ratioP2;P2;SDS_P1;SDS_P2;PMS_P1;PMS_P2;Temp;Humidity;BMP_temperature;BMP_pressure;BME280_temperature;BME280_humidity;BME280_pressure;Samples;Min_cycle;Max_cycle;Signal;HPM_P1;HPM_P2
2022/11/08 00:02:01;;;;;;;32.13;22.90;;;;;;;4.14;99.82;100269.15;1731315;81;21156;-72
2022/11/08 00:04:30;;;;;;;32.50;23.70;;;;;;;4.12;99.45;100273.86;1732689;82;20993;-70
2022/11/08 00:15:11;;;;;;;28.52;22.50;;;;;;;4.16;98.81;100288.42;1732376;82;21363;-72
2022/11/08 00:17:39;;;;;;;33.67;24.65;;;;;;;4.15;98.69;100307.56;1749344;81;21051;-70
2022/11/08 00:20:08;;;;;;;33.42;23.12;;;;;;;4.19;98.82;100313.31;1742882;82;21035;-71
2022/11/08 00:22:36;;;;;;;31.82;24.80;;;;;;;4.25;98.69;100311.22;1743177;81;21619;-69
2022/11/08 00:25:03;;;;;;;28.30;21.48;;;;;;;4.29;98.50;100314.63;1756220;81;22206;-69
2022/11/08 00:27:30;;;;;;;29.40;22.07;;;;;;;4.34;98.29;100288.25;1730756;81;21136;-70
2022/11/08 00:29:56;;;;;;;33.63;24.47;;;;;;;4.37;97.91;100274.53;1755732;81;21104;-68
2022/11/08 00:32:24;;;;;;;26.33;19.62;;;;;;;4.39;97.55;100281.00;1756100;81;20913;-69
2022/11/08 00:34:51;;;;;;;38.00;23.00;;;;;;;4.43;97.43;100282.76;1756009;81;21016;-70
2022/11/08 00:37:19;;;;;;;30.17;22.42;;;;;;;4.45;97.13;100278.08;1755748;81;21032;-69
2022/11/08 00:39:48;;;;;;;34.18;20.08;;;;;;;4.44;96.54;100265.27;1758008;81;21024;-70
2022/11/08 00:42:14;;;;;;;31.90;21.65;;;;;;;4.39;96.27;100255.70;1743296;81;21131;-69
2022/11/08 00:44:41;;;;;;;33.30;22.40;;;;;;;4.32;95.87;100254.32;1743233;82;20998;-73
2022/11/08 00:47:08;;;;;;;31.02;22.75;;;;;;;4.26;95.97;100243.14;1755850;81;21471;-72
2022/11/08 00:49:34;;;;;;;31.85;22.52;;;;;;;4.24;95.99;100243.01;1746508;81;21046;-77
2022/11/08 00:52:01;;;;;;;33.48;22.05;;;;;;;4.19;95.99;100240.94;1748443;80;21237;-76
2022/11/08 00:54:28;;;;;;;31.77;23.20;;;;;;;4.12;96.26;100242.75;1758985;81;20986;-75
2022/11/08 00:56:55;;;;;;;31.40;23.03;;;;;;;4.08;96.47;100242.80;1759270;81;20946;-75
2022/11/08 00:59:21;;;;;;;30.52;23.42;;;;;;;4.09;96.68;100250.27;1770296;80;20889;-74
2022/11/08 01:01:49;;;;;;;28.95;20.95;;;;;;;4.11;96.75;100249.08;1743859;81;21063;-75
2022/11/08 01:04:17;;;;;;;29.57;21.57;;;;;;;4.18;96.79;100245.11;1757601;81;21138;-76
2022/11/08 01:06:45;;;;;;;29.80;21.33;;;;;;;4.23;96.62;100236.86;1744276;81;20944;-76
2022/11/08 01:09:11;;;;;;;31.85;22.52;;;;;;;4.17;96.26;100233.64;1744534;80;20945;-76
2022/11/08 01:11:39;;;;;;;26.90;20.72;;;;;;;4.13;96.30;100243.03;1740768;80;21091;-74
2022/11/08 01:14:05;;;;;;;28.62;20.90;;;;;;;4.13;96.50;100239.05;1732499;81;21567;-76
2022/11/08 01:16:33;;;;;;;32.17;24.30;;;;;;;4.17;96.42;100248.81;1739625;82;21004;-76
2022/11/08 01:19:00;;;;;;;35.20;25.30;;;;;;;4.15;96.19;100236.20;1719793;81;21031;-75
2022/11/08 01:21:28;;;;;;;26.60;19.10;;;;;;;4.08;96.12;100235.31;1715008;82;21040;-78
2022/11/08 01:23:55;;;;;;;37.38;22.58;;;;;;;3.99;96.14;100225.33;1714138;83;20959;-72
2022/11/08 01:26:25;;;;;;;39.33;22.15;;;;;;;3.93;96.35;100234.11;1714279;83;21369;-74
2022/11/08 01:28:52;;;;;;;29.75;22.42;;;;;;;3.89;96.57;100235.48;1735402;81;21225;-73
2022/11/08 01:31:23;;;;;;;30.90;21.48;;;;;;;3.89;96.68;100237.64;1714193;81;21609;-71
2022/11/08 01:33:50;;;;;;;29.98;20.50;;;;;;;3.92;96.81;100224.48;1740939;82;21608;-72
2022/11/08 01:36:18;;;;;;;26.75;19.60;;;;;;;3.86;96.90;100229.23;1740695;82;21593;-72
2022/11/08 01:38:45;;;;;;;28.02;20.50;;;;;;;3.82;97.04;100229.31;1740646;81;21141;-69
2022/11/08 01:41:13;;;;;;;30.45;21.70;;;;;;;3.80;97.30;100232.66;1726213;82;21796;-69
2022/11/08 01:43:47;;;;;;;30.82;21.77;;;;;;;3.79;97.48;100245.13;1753383;80;21009;-75
2022/11/08 01:46:30;;;;;;;28.52;22.42;;;;;;;3.83;97.65;100242.43;1738470;80;21035;-74
2022/11/08 01:49:30;;;;;;;33.50;21.12;;;;;;;3.87;97.53;100236.20;1745962;80;20953;-72
2022/11/08 01:52:13;;;;;;;30.70;21.45;;;;;;;3.87;97.46;100250.34;1716598;81;21114;-73
2022/11/08 01:54:48;;;;;;;32.33;20.50;;;;;;;3.92;97.39;100246.59;1686215;82;21132;-72
2022/11/08 01:57:20;;;;;;;30.95;22.05;;;;;;;3.92;97.24;100237.28;1740988;82;22273;-72
2022/11/08 01:59:48;;;;;;;26.37;20.15;;;;;;;3.90;97.20;100241.13;1739487;82;21070;-71
2022/11/08 02:02:15;;;;;;;29.18;21.27;;;;;;;3.92;97.42;100237.78;1748566;81;21058;-69
2022/11/08 02:04:41;;;;;;;30.02;25.23;;;;;;;3.95;97.24;100230.23;1751955;81;21666;-69
2022/11/08 02:07:09;;;;;;;29.70;19.60;;;;;;;3.97;96.99;100226.55;1743632;81;21148;-67
2022/11/08 02:09:35;;;;;;;24.15;19.42;;;;;;;3.92;96.76;100218.66;1748788;81;20973;-76
2022/11/08 02:12:05;;;;;;;29.20;21.10;;;;;;;3.87;96.85;100214.41;1743621;80;21819;-68
2022/11/08 02:14:32;;;;;;;27.40;20.30;;;;;;;3.82;97.02;100209.36;1742072;82;21564;-69
2022/11/08 02:16:59;;;;;;;28.45;20.00;;;;;;;3.81;97.08;100214.35;1745261;82;21033;-68
2022/11/08 02:19:32;;;;;;;29.57;21.60;;;;;;;3.79;97.27;100214.54;1721284;82;21159;-69
2022/11/08 02:22:02;;;;;;;31.50;23.07;;;;;;;3.83;97.37;100208.34;1747356;81;21531;-70
2022/11/08 02:24:28;;;;;;;26.10;19.98;;;;;;;3.81;97.29;100208.53;1747065;82;21116;-72
2022/11/08 02:26:56;;;;;;;32.63;22.10;;;;;;;3.78;97.35;100212.09;1746211;81;21062;-67
2022/11/08 02:29:34;;;;;;;28.65;20.57;;;;;;;3.78;97.45;100216.08;1734314;82;21041;-65
2022/11/08 02:32:02;;;;;;;36.58;21.12;;;;;;;3.77;97.49;100221.08;1735431;81;21085;-68
2022/11/08 02:34:41;;;;;;;32.93;21.05;;;;;;;3.73;97.61;100225.97;1734969;81;21053;-67
2022/11/08 02:37:08;;;;;;;25.82;19.52;;;;;;;3.74;97.71;100230.79;1779058;80;20962;-68
2022/11/08 02:39:35;;;;;;;32.35;22.95;;;;;;;3.78;97.73;100224.06;1765810;80;20946;-68
2022/11/08 02:42:03;;;;;;;28.83;21.05;;;;;;;3.83;97.68;100234.95;1732480;81;21089;-70
2022/11/08 02:44:32;;;;;;;28.47;20.17;;;;;;;3.85;97.65;100240.88;1722688;81;21140;-72
2022/11/08 02:46:58;;;;;;;27.90;19.20;;;;;;;3.86;97.38;100234.55;1730526;82;21022;-70
2022/11/08 02:49:25;;;;;;;29.85;20.48;;;;;;;3.84;97.29;100233.41;1728577;81;21006;-71
2022/11/08 02:51:52;;;;;;;26.20;19.45;;;;;;;3.84;97.35;100233.91;1732452;81;21011;-68
2022/11/08 02:54:19;;;;;;;25.20;20.48;;;;;;;3.85;97.27;100213.77;1732451;82;21054;-69
2022/11/08 02:56:46;;;;;;;26.20;20.35;;;;;;;3.89;97.32;100236.31;1731346;82;21260;-69
2022/11/08 02:59:13;;;;;;;24.95;19.23;;;;;;;3.90;96.71;100212.69;1729186;83;21027;-69
2022/11/08 03:01:42;;;;;;;26.00;19.62;;;;;;;3.86;96.65;100210.61;1731296;81;20942;-71
2022/11/08 03:04:08;;;;;;;24.85;17.77;;;;;;;3.86;96.76;100231.89;1731797;81;21958;-68
2022/11/08 03:06:36;;;;;;;25.52;18.75;;;;;;;3.87;96.83;100218.91;1730336;81;21031;-69
2022/11/08 03:09:03;;;;;;;27.13;19.23;;;;;;;3.88;96.73;100217.91;1728923;81;21134;-70
2022/11/08 03:11:33;;;;;;;29.95;20.65;;;;;;;3.87;96.61;100220.24;1729884;81;21049;-73
2022/11/08 03:13:59;;;;;;;27.48;20.17;;;;;;;3.89;96.49;100227.00;1732053;82;20969;-68
2022/11/08 03:16:28;;;;;;;25.57;18.87;;;;;;;3.94;96.55;100217.10;1732509;81;21268;-70
2022/11/08 03:18:55;;;;;;;29.25;20.60;;;;;;;3.95;96.13;100218.75;1738713;81;21085;-69
2022/11/08 03:21:22;;;;;;;40.45;22.02;;;;;;;3.98;96.12;100212.24;1708251;81;21816;-70
2022/11/08 03:23:49;;;;;;;26.17;19.20;;;;;;;4.06;95.96;100216.08;1723547;81;21026;-70
2022/11/08 03:26:17;;;;;;;32.17;21.40;;;;;;;4.02;95.46;100207.66;1701227;82;21073;-70
2022/11/08 03:28:43;;;;;;;28.52;19.67;;;;;;;3.97;95.35;100212.75;1720824;81;20927;-70
2022/11/08 03:31:10;;;;;;;28.45;19.82;;;;;;;3.95;95.41;100206.28;1707057;82;21043;-70
2022/11/08 03:33:37;;;;;;;33.30;23.18;;;;;;;3.93;95.40;100210.16;1702106;82;21148;-70
2022/11/08 03:36:05;;;;;;;25.20;17.52;;;;;;;3.90;95.55;100210.03;1714944;81;20979;-68
2022/11/08 03:38:31;;;;;;;30.55;20.65;;;;;;;3.97;95.73;100210.59;1705125;81;21132;-69
2022/11/08 03:41:00;;;;;;;25.90;17.55;;;;;;;4.01;95.62;100210.51;1732560;82;21013;-69
2022/11/08 03:43:26;;;;;;;24.72;19.15;;;;;;;4.07;95.49;100215.06;1732338;81;21120;-69
2022/11/08 03:45:53;;;;;;;30.20;21.05;;;;;;;4.06;95.20;100211.58;1732655;82;21137;-71
2022/11/08 03:48:22;;;;;;;27.58;19.40;;;;;;;4.01;94.87;100219.83;1731830;81;21526;-71
2022/11/08 03:50:50;;;;;;;22.60;16.10;;;;;;;4.03;95.00;100226.58;1730753;82;21024;-68
2022/11/08 03:53:17;;;;;;;30.35;17.92;;;;;;;4.04;94.77;100219.42;1732469;82;21553;-69
2022/11/08 03:55:45;;;;;;;26.00;17.70;;;;;;;4.01;94.79;100221.98;1703942;82;21058;-69
2022/11/08 03:58:12;;;;;;;22.37;16.77;;;;;;;4.07;94.98;100227.87;1713762;82;21246;-70
2022/11/08 04:00:38;;;;;;;25.65;19.80;;;;;;;4.17;94.95;100231.52;1699658;83;21568;-69
2022/11/08 04:03:05;;;;;;;26.40;18.90;;;;;;;4.13;94.32;100231.05;1729107;82;21404;-68
2022/11/08 04:05:32;;;;;;;23.45;19.98;;;;;;;4.10;94.26;100226.64;1728982;82;20983;-69
2022/11/08 04:08:00;;;;;;;30.00;19.37;;;;;;;4.02;94.32;100228.95;1729221;82;21104;-68
2022/11/08 04:10:27;;;;;;;25.37;18.25;;;;;;;4.06;94.54;100228.05;1724066;81;21101;-67
2022/11/08 04:15:39;;;;;;;24.02;17.32;;;;;;;4.08;94.30;100225.49;1739566;82;21527;-69
2022/11/08 04:23:39;;;;;;;39.65;19.80;;;;;;;3.98;94.30;100219.69;1739977;82;21179;-68
2022/11/08 04:26:07;;;;;;;25.48;18.50;;;;;;;3.95;94.58;100225.41;1709255;82;21009;-67
2022/11/08 04:28:36;;;;;;;29.07;20.32;;;;;;;3.95;94.73;100227.56;1739647;81;21116;-69
2022/11/08 04:31:10;;;;;;;24.20;18.57;;;;;;;3.97;94.89;100226.05;1739475;80;21040;-68
2022/11/08 04:33:36;;;;;;;23.47;18.97;;;;;;;4.03;94.89;100224.45;1739692;82;21125;-68
2022/11/08 04:36:06;;;;;;;26.33;22.10;;;;;;;4.10;94.87;100224.80;1739597;82;21136;-69
2022/11/08 04:38:32;;;;;;;27.42;18.95;;;;;;;4.11;94.40;100222.46;1738987;81;21551;-71
2022/11/08 04:41:09;;;;;;;25.00;17.02;;;;;;;4.15;94.40;100228.21;1739660;82;21626;-68
2022/11/08 04:43:36;;;;;;;26.42;19.10;;;;;;;4.17;94.32;100224.86;1740410;82;20977;-68
2022/11/08 04:46:06;;;;;;;25.00;18.40;;;;;;;4.12;94.19;100224.11;1750625;81;20943;-69
2022/11/08 04:48:33;;;;;;;22.98;18.20;;;;;;;4.14;94.37;100226.05;1752938;80;21244;-68
2022/11/08 04:51:06;;;;;;;30.30;21.37;;;;;;;4.14;94.17;100223.39;1734461;82;20984;-69
2022/11/08 04:53:32;;;;;;;26.95;19.73;;;;;;;4.09;94.33;100214.34;1739960;82;21045;-65
2022/11/08 04:56:06;;;;;;;25.50;19.55;;;;;;;3.99;94.49;100213.36;1740762;82;21081;-68
2022/11/08 04:58:45;;;;;;;26.00;19.82;;;;;;;3.92;94.93;100218.66;1734811;81;21060;-69
2022/11/08 05:01:17;;;;;;;23.22;16.60;;;;;;;3.81;95.68;100224.49;1711974;83;21670;-68
2022/11/08 05:03:45;;;;;;;25.10;19.37;;;;;;;3.84;95.83;100219.28;1734106;82;20996;-69
2022/11/08 05:06:20;;;;;;;29.02;19.40;;;;;;;3.85;95.95;100212.44;1743213;80;21669;-70
2022/11/08 05:08:48;;;;;;;26.23;19.87;;;;;;;3.85;96.38;100219.59;1749681;81;21260;-70
2022/11/08 05:11:17;;;;;;;24.95;19.27;;;;;;;3.81;96.65;100218.34;1749049;81;21656;-69
2022/11/08 05:13:44;;;;;;;26.50;19.87;;;;;;;3.80;96.97;100223.34;1747316;82;21240;-69
2022/11/08 05:16:15;;;;;;;26.23;18.07;;;;;;;3.79;97.04;100221.72;1750500;82;21019;-67
2022/11/08 05:18:42;;;;;;;26.90;18.87;;;;;;;3.82;97.30;100223.48;1753248;80;21004;-66
2022/11/08 05:23:56;;;;;;;25.37;22.30;;;;;;;3.81;97.66;100227.66;1749072;82;21381;-67
2022/11/08 05:26:23;;;;;;;25.05;18.82;;;;;;;3.78;97.91;100228.88;1720675;82;21198;-67
2022/11/08 05:28:49;;;;;;;26.12;16.82;;;;;;;3.78;98.21;100235.53;1714892;82;21009;-67
2022/11/08 05:31:16;;;;;;;22.90;17.98;;;;;;;3.76;98.22;100236.72;1734150;82;21019;-71
2022/11/08 05:33:42;;;;;;;25.90;18.90;;;;;;;3.80;98.39;100252.61;1739752;82;20935;-68
2022/11/08 05:36:13;;;;;;;25.08;19.07;;;;;;;3.88;98.58;100257.81;1750269;82;21050;-68
2022/11/08 05:38:40;;;;;;;26.17;18.32;;;;;;;3.92;98.41;100258.56;1749873;81;21558;-68
2022/11/08 05:41:15;;;;;;;22.90;18.35;;;;;;;3.89;98.28;100256.77;1715082;83;21587;-70
2022/11/08 05:43:44;;;;;;;25.02;19.52;;;;;;;3.83;98.31;100249.59;1737538;82;21022;-68
2022/11/08 05:46:10;;;;;;;25.90;19.52;;;;;;;3.80;98.67;100254.77;1739665;82;21547;-70
2022/11/08 05:48:37;;;;;;;23.70;17.30;;;;;;;3.80;98.98;100250.77;1740457;81;21570;-69
2022/11/08 05:51:04;;;;;;;29.60;19.85;;;;;;;3.77;99.14;100243.70;1750368;80;21242;-70
2022/11/08 05:53:32;;;;;;;21.93;17.25;;;;;;;3.77;99.46;100253.00;1726490;81;20961;-70
2022/11/08 05:55:59;;;;;;;24.12;19.30;;;;;;;3.80;99.92;100244.13;1780095;80;20985;-70
2022/11/08 05:58:26;;;;;;;23.90;17.95;;;;;;;3.75;100.00;100243.05;1784791;80;21045;-71
2022/11/08 06:01:05;;;;;;;26.37;18.35;;;;;;;3.76;100.00;100244.70;1748730;80;21020;-70
2022/11/08 06:03:32;;;;;;;20.92;18.52;;;;;;;3.80;100.00;100251.28;1734634;82;21110;-70
2022/11/08 06:06:06;;;;;;;25.23;18.45;;;;;;;3.76;100.00;100244.70;1741712;81;21016;-70
2022/11/08 06:08:32;;;;;;;22.65;18.12;;;;;;;3.80;100.00;100251.28;1759929;81;21324;-70
2022/11/08 06:11:05;;;;;;;27.60;19.35;;;;;;;3.85;100.00;100253.69;1753968;80;21024;-71
2022/11/08 06:13:32;;;;;;;25.02;19.65;;;;;;;3.90;100.00;100252.60;1728861;81;22201;-72
2022/11/08 06:16:01;;;;;;;23.38;18.17;;;;;;;3.92;100.00;100257.23;1753650;81;21314;-69
2022/11/08 06:18:30;;;;;;;25.02;17.77;;;;;;;3.95;100.00;100256.02;1728998;81;20998;-70
2022/11/08 06:20:58;;;;;;;23.70;16.93;;;;;;;3.99;100.00;100255.94;1758574;80;20934;-70
2022/11/08 06:23:24;;;;;;;30.43;22.20;;;;;;;4.03;100.00;100261.72;1759705;81;21009;-69
2022/11/08 06:25:51;;;;;;;23.40;17.52;;;;;;;4.04;100.00;100263.34;1759748;81;21666;-71
2022/11/08 06:28:18;;;;;;;26.40;18.17;;;;;;;4.09;99.97;100273.72;1754419;81;22271;-70
2022/11/08 06:30:46;;;;;;;23.07;18.07;;;;;;;4.10;99.86;100263.91;1758511;80;21002;-71
2022/11/08 06:33:12;;;;;;;32.88;23.12;;;;;;;4.11;99.61;100266.89;1760821;80;20987;-72
2022/11/08 06:35:39;;;;;;;26.33;21.35;;;;;;;4.04;99.62;100258.84;1759877;81;21045;-71
2022/11/08 06:38:07;;;;;;;23.27;19.10;;;;;;;3.99;99.92;100246.63;1760072;80;21088;-72
2022/11/08 06:40:37;;;;;;;24.65;19.67;;;;;;;3.96;100.00;100235.05;1755579;80;21028;-71
2022/11/08 06:43:04;;;;;;;27.37;17.77;;;;;;;3.87;100.00;100237.54;1753766;81;21213;-71
2022/11/08 06:45:31;;;;;;;23.15;18.82;;;;;;;3.80;100.00;100244.13;1753784;81;21584;-70
2022/11/08 06:47:59;;;;;;;26.60;18.35;;;;;;;3.83;100.00;100243.76;1758208;81;21045;-71
2022/11/08 06:50:26;;;;;;;25.13;18.93;;;;;;;3.87;100.00;100237.54;1760152;80;21009;-73
2022/11/08 10:33:56;;;;;;;53.02;35.15;;;;;;;5.42;100.00;100224.80;1710565;78;28491;-72
2022/11/08 10:36:41;;;;;;;59.13;35.17;;;;;;;5.46;100.00;100227.41;1739179;82;21077;-73
2022/11/08 10:39:16;;;;;;;48.40;30.23;;;;;;;5.54;100.00;100229.86;1738220;82;21319;-69
2022/11/08 10:41:57;;;;;;;60.58;33.67;;;;;;;5.71;100.00;100233.77;1762424;81;21499;-71
2022/11/08 10:44:26;;;;;;;50.65;31.23;;;;;;;5.85;100.00;100232.45;1769574;79;21043;-74
2022/11/08 10:46:59;;;;;;;63.70;35.55;;;;;;;5.97;100.00;100230.81;1752393;81;20912;-72
2022/11/08 10:49:38;;;;;;;58.20;37.05;;;;;;;6.09;100.00;100237.98;1742251;81;20999;-71
2022/11/08 10:52:18;;;;;;;66.62;35.10;;;;;;;6.21;100.00;100235.52;1764573;81;21657;-69
2022/11/08 10:54:53;;;;;;;50.40;31.73;;;;;;;6.27;100.00;100229.35;1746784;79;21129;-73
2022/11/08 10:57:43;;;;;;;47.55;31.15;;;;;;;6.40;100.00;100233.83;1748070;81;21580;-69
2022/11/08 11:00:24;;;;;;;52.95;33.08;;;;;;;6.45;100.00;100231.36;1757721;79;21002;-74
2022/11/08 11:02:57;;;;;;;52.20;30.82;;;;;;;6.50;100.00;100238.23;1758846;80;21526;-74
2022/11/08 11:05:34;;;;;;;54.67;32.20;;;;;;;6.58;100.00;100238.81;1731739;81;21916;-75
2022/11/08 11:08:13;;;;;;;48.60;31.90;;;;;;;6.62;100.00;100239.20;1683058;82;21057;-70
2022/11/08 11:10:47;;;;;;;61.10;33.85;;;;;;;6.65;100.00;100242.81;1749809;80;21572;-69
2022/11/08 11:13:26;;;;;;;60.17;35.23;;;;;;;6.68;100.00;100234.88;1758136;81;21543;-69
2022/11/08 11:16:03;;;;;;;52.65;31.17;;;;;;;6.75;100.00;100232.50;1758431;79;21069;-73
2022/11/08 11:18:41;;;;;;;42.20;29.95;;;;;;;6.82;100.00;100229.27;1761572;79;20994;-71
2022/11/08 11:21:20;;;;;;;52.10;30.77;;;;;;;6.94;100.00;100234.78;1726483;81;21091;-68
2022/11/08 11:23:54;;;;;;;53.75;31.37;;;;;;;7.01;100.00;100228.88;1734808;81;21578;-76
2022/11/08 11:26:29;;;;;;;49.15;28.23;;;;;;;7.05;100.00;100231.41;1754983;80;21542;-69
2022/11/08 11:29:08;;;;;;;47.98;31.87;;;;;;;7.11;100.00;100229.23;1733934;81;21546;-69
2022/11/08 11:31:45;;;;;;;51.00;30.43;;;;;;;7.18;100.00;100234.05;1756381;80;21086;-68
2022/11/08 11:34:42;;;;;;;65.52;32.83;;;;;;;7.23;100.00;100233.40;1758767;80;21018;-69
2022/11/08 11:37:20;;;;;;;60.52;34.15;;;;;;;7.26;100.00;100231.62;1752317;80;21102;-69
2022/11/08 11:39:58;;;;;;;64.25;33.38;;;;;;;7.31;100.00;100232.63;1755543;80;20979;-68
2022/11/08 11:42:59;;;;;;;65.45;37.85;;;;;;;7.38;100.00;100244.63;1754706;80;21693;-68
2022/11/08 11:45:38;;;;;;;53.38;31.85;;;;;;;7.47;100.00;100242.52;1754900;80;21137;-68
2022/11/08 11:48:27;;;;;;;57.17;34.25;;;;;;;7.64;100.00;100239.60;1739267;80;21442;-69
2022/11/08 11:50:55;;;;;;;46.55;27.22;;;;;;;7.79;100.00;100242.79;1740650;81;21845;-69
2022/11/08 11:53:35;;;;;;;51.75;29.95;;;;;;;7.95;100.00;100249.47;1752485;80;21014;-67
2022/11/08 11:56:24;;;;;;;49.93;30.23;;;;;;;8.00;100.00;100254.47;1736143;81;21041;-67
2022/11/08 11:59:28;;;;;;;56.80;32.10;;;;;;;8.10;99.76;100249.44;1741990;81;21068;-68
2022/11/08 12:02:20;;;;;;;47.83;29.67;;;;;;;8.15;99.02;100252.80;1755949;80;21007;-70
2022/11/08 12:05:34;;;;;;;72.58;38.50;;;;;;;8.13;98.08;100248.98;1716739;81;21554;-71
2022/11/08 12:08:31;;;;;;;64.62;35.98;;;;;;;8.11;97.87;100246.21;1683101;82;21034;-75
2022/11/08 12:11:22;;;;;;;59.65;32.48;;;;;;;8.19;97.89;100255.33;1729553;81;21034;-66
2022/11/08 12:14:22;;;;;;;57.80;31.35;;;;;;;8.28;97.47;100255.34;1733747;81;21236;-69
2022/11/08 12:17:00;;;;;;;57.60;29.95;;;;;;;8.34;97.16;100262.55;1702425;82;21683;-74
2022/11/08 12:19:48;;;;;;;46.25;28.55;;;;;;;8.41;97.09;100261.94;1750498;80;21038;-69
2022/11/08 12:22:33;;;;;;;47.40;29.20;;;;;;;8.45;96.63;100263.64;1703142;82;21586;-66
2022/11/08 12:25:31;;;;;;;59.58;34.58;;;;;;;8.46;96.29;100271.48;1735385;81;21589;-67
2022/11/08 12:28:26;;;;;;;51.90;33.33;;;;;;;8.49;96.13;100267.00;1748298;80;21541;-67
2022/11/08 12:31:18;;;;;;;59.98;32.73;;;;;;;8.50;95.75;100265.14;1737225;81;20915;-67
2022/11/08 12:34:29;;;;;;;48.90;30.87;;;;;;;8.48;95.56;100260.55;1746010;81;20955;-67
2022/11/08 12:37:29;;;;;;;47.30;29.57;;;;;;;8.50;95.76;100273.19;1752182;81;21246;-70
2022/11/08 12:40:02;;;;;;;52.73;32.90;;;;;;;8.51;95.43;100271.63;1757486;81;20920;-68
2022/11/08 12:42:36;;;;;;;;;;;;;;;8.53;95.31;100273.58;1755296;81;21115;-69
2022/11/08 12:45:42;;;;;;;55.70;30.75;;;;;;;8.54;95.24;100269.02;1744273;81;20515;-74
2022/11/08 12:48:51;;;;;;;52.38;30.23;;;;;;;8.52;95.23;100270.59;1748273;81;21017;-82
2022/11/08 12:51:52;;;;;;;50.12;29.18;;;;;;;8.54;95.34;100277.87;1699512;83;21057;-66
2022/11/08 12:54:39;;;;;;;57.53;30.75;;;;;;;8.51;95.08;100282.88;1730121;81;21042;-71
2022/11/08 12:57:10;;;;;;;48.00;30.17;;;;;;;8.48;95.26;100269.92;1754209;81;21709;-71
2022/11/08 12:59:45;;;;;;;64.50;46.20;;;;;;;8.51;95.51;100281.02;1734487;82;21022;-72
2022/11/08 13:02:22;;;;;;;64.10;35.03;;;;;;;8.54;95.64;100285.92;1740541;81;20946;-66
2022/11/08 13:05:00;;;;;;;53.78;32.42;;;;;;;8.57;95.45;100281.99;1755203;81;20994;-68
2022/11/08 13:07:58;;;;;;;53.52;33.08;;;;;;;8.56;95.51;100282.52;1757288;81;21120;-72
2022/11/08 13:10:56;;;;;;;57.65;31.07;;;;;;;8.51;95.38;100293.08;1734701;81;21122;-68
2022/11/08 13:13:36;;;;;;;54.55;33.40;;;;;;;8.48;95.64;100286.83;1761248;81;20974;-66
2022/11/08 13:16:24;;;;;;;60.80;34.23;;;;;;;8.49;95.80;100284.42;1718182;83;21354;-66
2022/11/08 13:18:58;;;;;;;55.63;32.70;;;;;;;8.52;96.08;100284.00;1731797;82;21065;-71
2022/11/08 13:21:33;;;;;;;53.20;30.82;;;;;;;8.54;95.83;100282.42;1750024;80;21049;-70
2022/11/08 13:24:11;;;;;;;59.48;32.42;;;;;;;8.57;96.11;100275.30;1736671;81;21151;-72
2022/11/08 13:26:42;;;;;;;52.13;30.77;;;;;;;8.60;96.01;100286.90;1755134;81;21083;-68
2022/11/08 13:29:27;;;;;;;48.30;32.50;;;;;;;8.54;95.93;100281.08;1728217;81;21060;-68
2022/11/08 13:32:14;;;;;;;46.40;30.10;;;;;;;8.51;96.22;100292.26;1725391;81;20989;-70
2022/11/08 13:34:58;;;;;;;58.25;32.17;;;;;;;8.48;96.44;100289.52;1752024;80;21014;-70
2022/11/08 13:37:41;;;;;;;56.15;34.27;;;;;;;8.46;96.59;100292.92;1754542;81;21279;-71
2022/11/08 13:40:29;;;;;;;61.68;35.73;;;;;;;8.48;96.77;100300.23;1731956;81;21093;-72
2022/11/08 13:43:29;;;;;;;47.60;30.82;;;;;;;8.54;96.92;100297.98;1676206;84;21007;-67
2022/11/08 13:45:58;;;;;;;39.38;28.00;;;;;;;8.56;96.16;100291.07;1705690;82;21093;-72
2022/11/08 13:48:34;;;;;;;61.10;40.28;;;;;;;8.47;95.97;100297.77;1711092;82;21132;-67
2022/11/08 13:51:31;;;;;;;41.20;29.00;;;;;;;8.45;96.31;100302.52;1701704;82;21180;-66
2022/11/08 13:54:25;;;;;;;54.20;31.37;;;;;;;8.47;96.29;100305.29;1677576;85;21020;-66
2022/11/08 13:56:59;;;;;;;54.42;34.58;;;;;;;8.43;96.28;100301.94;1695191;84;20978;-65
2022/11/08 13:59:34;;;;;;;60.05;34.90;;;;;;;8.40;96.55;100301.02;1717446;82;22473;-67
2022/11/08 14:02:24;;;;;;;55.63;34.50;;;;;;;8.40;96.76;100298.33;1736307;81;21074;-67
2022/11/08 14:04:52;;;;;;;57.75;31.70;;;;;;;8.40;96.91;100297.81;1736127;81;21212;-68
2022/11/08 14:07:39;;;;;;;69.62;42.20;;;;;;;8.42;97.01;100300.29;1684477;84;21552;-68
2022/11/08 14:10:25;;;;;;;61.90;38.33;;;;;;;8.45;97.23;100297.16;1698295;84;21063;-69
2022/11/08 14:13:19;;;;;;;53.08;36.45;;;;;;;8.50;97.11;100295.97;1734410;82;20975;-70
2022/11/08 14:15:52;;;;;;;;;;;;;;;8.54;97.17;100295.30;1727877;81;21066;-76
2022/11/08 14:18:31;;;;;;;61.17;34.63;;;;;;;8.51;96.81;100289.58;1725219;81;22264;-73
2022/11/08 14:20:58;;;;;;;51.10;34.73;;;;;;;8.43;96.98;100281.83;1735101;81;21031;-66
2022/11/08 18:12:27;;;;;;;63.63;47.15;;;;;;;7.77;100.00;100347.97;1732653;79;29278;-68
2022/11/08 18:14:54;;;;;;;61.35;40.33;;;;;;;7.85;100.00;100345.02;1694042;84;21022;-70
2022/11/08 18:17:22;;;;;;;49.05;33.95;;;;;;;7.96;100.00;100351.55;1678762;85;22090;-70
2022/11/08 18:19:50;;;;;;;51.88;34.85;;;;;;;8.06;100.00;100354.55;1678707;85;20920;-67
2022/11/08 18:22:16;;;;;;;44.13;33.53;;;;;;;8.15;100.00;100348.70;1653361;85;20998;-68
2022/11/08 18:24:43;;;;;;;51.10;33.60;;;;;;;8.24;100.00;100358.66;1679638;84;21049;-68
2022/11/08 18:27:10;;;;;;;51.50;32.93;;;;;;;8.31;100.00;100366.97;1678441;84;21018;-67
2022/11/08 18:29:36;;;;;;;48.20;35.78;;;;;;;8.36;100.00;100353.42;1678703;85;21169;-67
2022/11/08 18:32:06;;;;;;;55.92;35.58;;;;;;;8.35;100.00;100355.80;1678374;84;21595;-70
2022/11/08 18:34:32;;;;;;;54.80;33.60;;;;;;;8.35;100.00;100351.27;1689093;83;21045;-70
2022/11/08 18:36:59;;;;;;;48.58;34.23;;;;;;;8.38;100.00;100354.04;1695326;84;20986;-69
2022/11/08 18:39:25;;;;;;;56.92;34.55;;;;;;;8.40;100.00;100353.28;1682530;84;21094;-69
2022/11/08 18:41:52;;;;;;;41.28;29.92;;;;;;;8.42;100.00;100361.42;1686605;84;21167;-68
2022/11/08 18:44:20;;;;;;;57.05;36.17;;;;;;;8.41;100.00;100364.31;1688017;83;21085;-68
2022/11/08 18:46:47;;;;;;;59.75;37.65;;;;;;;8.37;100.00;100366.62;1686326;85;21022;-70
2022/11/08 18:49:14;;;;;;;53.38;35.03;;;;;;;8.37;100.00;100367.13;1690738;83;20984;-69
2022/11/08 18:51:41;;;;;;;55.28;36.45;;;;;;;8.40;100.00;100368.02;1688661;84;21050;-68
2022/11/08 18:54:07;;;;;;;54.30;39.58;;;;;;;8.44;100.00;100374.06;1659137;85;21197;-69
2022/11/08 18:56:35;;;;;;;55.43;37.98;;;;;;;8.51;100.00;100378.05;1684347;85;21054;-69
2022/11/08 18:59:01;;;;;;;58.08;40.75;;;;;;;8.57;100.00;100377.17;1685064;83;21594;-68
2022/11/08 19:01:29;;;;;;;50.43;36.28;;;;;;;8.56;100.00;100383.57;1685591;83;21067;-72
2022/11/08 19:03:55;;;;;;;54.05;38.05;;;;;;;8.56;100.00;100389.75;1686055;83;21277;-71
2022/11/08 19:06:22;;;;;;;59.08;36.95;;;;;;;8.54;100.00;100386.46;1692977;83;21443;-69
2022/11/08 19:08:49;;;;;;;56.75;36.85;;;;;;;8.54;100.00;100395.02;1687945;83;20982;-69
2022/11/08 19:11:20;;;;;;;56.45;37.45;;;;;;;8.55;100.00;100393.47;1685650;83;21097;-69
2022/11/08 19:13:44;;;;;;;57.90;37.23;;;;;;;8.61;100.00;100401.16;1682907;83;21128;-69
2022/11/08 19:16:15;;;;;;;59.08;38.48;;;;;;;8.63;100.00;100401.23;1679431;84;21547;-68
2022/11/08 19:18:42;;;;;;;58.40;38.42;;;;;;;8.64;100.00;100404.22;1680728;84;21158;-69
2022/11/08 19:21:16;;;;;;;48.52;35.95;;;;;;;8.62;100.00;100402.30;1678226;84;21077;-67
2022/11/08 19:23:42;;;;;;;54.95;38.25;;;;;;;8.57;100.00;100398.11;1677092;85;21010;-68
2022/11/08 19:26:13;;;;;;;45.85;31.15;;;;;;;8.57;100.00;100398.62;1684898;84;21006;-69
2022/11/08 19:28:43;;;;;;;44.13;34.10;;;;;;;8.63;100.00;100398.55;1683214;83;21115;-68
2022/11/08 19:31:13;;;;;;;48.98;35.73;;;;;;;8.64;100.00;100404.22;1691051;84;21134;-70